Ander, Texas
Current Conditions -  °F | °C
As of 5:55 PM on Monday 20 Oct 2014 (Local Time) from KBEA Reporting Station
Broken Clouds Broken Clouds  
Wind Chill: 76°   Ceiling: 8000
Heat Index: 78°   Visibility: 10mi
Dew Point: 66°   Wind: 8mph
Humidity: 70%   Direction: 120°ESE
Pressure: 29.96"   Gusts: NA
Location:  28.6563°N, 97.4287°W
Report Text: KBEA 202255Z AUTO 12007KT 10SM SCT060 BKN080 25/19 A2996 RMK AO2 T02470190
Loading
Personal Weather Stations






























Interactive Weather Map
Tropical Storm Tracking
New forecast layout! Learn more

10-Day Weather Forecast

Advertisements
Track Severe Weather on mobile